createdAt,value
2024-05-09T00:02:58.783Z,7.82
2024-05-09T00:06:06.092Z,7.77
2024-05-09T00:09:10.486Z,7.67
2024-05-09T00:12:14.871Z,7.60
2024-05-09T00:15:19.228Z,7.54
2024-05-09T00:18:23.718Z,7.53
2024-05-09T00:21:30.671Z,7.59
2024-05-09T00:24:34.939Z,7.54
2024-05-09T00:27:39.275Z,7.52
2024-05-09T00:30:43.782Z,7.45
2024-05-09T00:33:48.217Z,7.33
2024-05-09T00:36:55.181Z,7.18
2024-05-09T00:39:59.450Z,7.10
2024-05-09T00:43:03.755Z,7.12
2024-05-09T00:46:08.804Z,7.15
2024-05-09T00:49:14.371Z,7.17
2024-05-09T00:52:21.502Z,7.17
2024-05-09T00:55:26.605Z,7.09
2024-05-09T00:58:32.216Z,6.96
2024-05-09T01:01:37.428Z,6.79
2024-05-09T01:04:41.922Z,6.75
2024-05-09T01:07:49.104Z,6.89
2024-05-09T01:10:53.575Z,6.90
2024-05-09T01:13:58.749Z,6.78
2024-05-09T01:17:03.185Z,6.70
2024-05-09T01:20:10.945Z,6.61
2024-05-09T01:23:23.237Z,6.56
2024-05-09T01:26:27.658Z,6.53
2024-05-09T01:29:32.009Z,6.59
2024-05-09T01:32:36.641Z,6.60
2024-05-09T01:35:42.524Z,6.58
2024-05-09T01:38:50.020Z,6.65
2024-05-09T01:41:54.388Z,6.59
2024-05-09T01:44:58.656Z,6.50
2024-05-09T01:48:03.684Z,6.48
2024-05-09T01:51:08.571Z,6.42
2024-05-09T01:54:15.618Z,6.42
2024-05-09T01:57:20.024Z,6.28
2024-05-09T02:00:36.429Z,6.20
2024-05-09T02:03:47.325Z,6.17
2024-05-09T02:06:51.722Z,6.10
2024-05-09T02:09:58.644Z,6.09
2024-05-09T02:13:03.016Z,6.03
2024-05-09T02:16:11.886Z,5.97
2024-05-09T02:19:16.334Z,5.87
2024-05-09T02:22:20.729Z,5.90
2024-05-09T02:25:27.719Z,6.07
2024-05-09T02:28:32.005Z,6.05
2024-05-09T02:31:36.323Z,5.98
2024-05-09T02:34:40.601Z,5.67
2024-05-09T02:37:44.979Z,5.55
2024-05-09T02:40:49.367Z,5.60
2024-05-09T02:43:53.693Z,5.58
2024-05-09T02:46:55.542Z,5.58
2024-05-09T02:49:59.715Z,5.63
2024-05-09T02:53:01.544Z,5.43
2024-05-09T02:56:08.715Z,5.48
2024-05-09T02:59:10.577Z,5.48
2024-05-09T03:02:14.820Z,5.67
2024-05-09T03:05:16.613Z,5.64
2024-05-09T03:08:21.061Z,5.67
2024-05-09T03:11:26.181Z,5.70
2024-05-09T03:14:31.373Z,5.63
2024-05-09T03:17:33.559Z,5.64
2024-05-09T03:20:38.412Z,5.73
2024-05-09T03:23:41.257Z,5.82
2024-05-09T03:26:48.190Z,5.89
2024-05-09T03:29:49.879Z,5.90
2024-05-09T03:32:54.276Z,5.95
2024-05-09T03:35:56.070Z,6.03
2024-05-09T03:39:00.435Z,6.15
2024-05-09T03:42:08.140Z,6.31
2024-05-09T03:45:12.448Z,6.37
2024-05-09T03:48:14.384Z,6.50
2024-05-09T03:51:18.799Z,7.87
2024-05-09T03:54:20.603Z,9.30
2024-05-09T03:57:27.361Z,10.27
2024-05-09T04:00:36.841Z,11.05
2024-05-09T04:03:43.220Z,11.82
2024-05-09T04:06:45.010Z,11.79
2024-05-09T04:09:49.262Z,12.14
2024-05-09T04:12:56.165Z,12.84
2024-05-09T04:16:00.545Z,13.64
2024-05-09T04:19:02.445Z,14.29
2024-05-09T04:22:07.192Z,14.53
2024-05-09T04:25:08.895Z,14.08
2024-05-09T04:28:16.552Z,14.60
2024-05-09T04:31:18.295Z,14.30
2024-05-09T04:34:22.749Z,13.35
2024-05-09T04:37:27.418Z,13.10
2024-05-09T04:40:34.047Z,13.63
2024-05-09T04:43:43.242Z,14.00
2024-05-09T04:46:47.414Z,13.98
2024-05-09T04:49:52.046Z,14.75
2024-05-09T04:52:53.872Z,16.13
2024-05-09T04:55:58.097Z,16.09
2024-05-09T04:59:02.493Z,17.03
2024-05-09T05:02:07.242Z,17.52
2024-05-09T05:05:09.642Z,18.50
2024-05-09T05:08:15.344Z,19.27
2024-05-09T05:11:17.491Z,19.52
2024-05-09T05:14:24.559Z,19.53
2024-05-09T05:17:28.977Z,19.48
2024-05-09T05:20:33.699Z,18.99
2024-05-09T05:23:40.765Z,18.27
2024-05-09T05:26:42.686Z,17.14
2024-05-09T05:29:49.678Z,16.95
2024-05-09T05:32:54.129Z,15.85
2024-05-09T05:35:57.292Z,15.10
2024-05-09T05:39:01.621Z,14.96
2024-05-09T05:42:03.435Z,14.98
2024-05-09T05:45:10.683Z,14.94
2024-05-09T05:48:16.197Z,14.82
2024-05-09T05:51:20.955Z,15.16
2024-05-09T05:54:22.834Z,15.44
2024-05-09T05:57:26.993Z,15.97
2024-05-09T06:00:38.204Z,15.79
2024-05-09T06:03:44.561Z,15.74
2024-05-09T06:06:48.976Z,16.17
2024-05-09T06:09:50.775Z,16.47
2024-05-09T06:12:55.072Z,16.24
2024-05-09T06:16:04.860Z,16.61
2024-05-09T06:19:06.747Z,16.84
2024-05-09T06:22:11.380Z,16.93
2024-05-09T06:25:13.233Z,17.16
2024-05-09T06:28:17.567Z,17.24
2024-05-09T06:31:22.521Z,17.36
2024-05-09T06:34:26.948Z,17.65
2024-05-09T06:37:28.807Z,17.51
2024-05-09T06:40:37.923Z,17.73
2024-05-09T06:43:44.677Z,17.96
2024-05-09T06:46:49.194Z,18.15
2024-05-09T06:49:53.726Z,18.61
2024-05-09T06:52:55.520Z,18.77
2024-05-09T06:55:59.868Z,18.72
2024-05-09T06:59:01.810Z,18.66
2024-05-09T07:02:08.939Z,18.97
2024-05-09T07:05:10.958Z,19.20
2024-05-09T07:08:15.422Z,19.01
2024-05-09T07:11:17.253Z,19.38
2024-05-09T07:14:21.671Z,19.94
2024-05-09T07:17:26.332Z,20.11
2024-05-09T07:20:34.617Z,20.28
2024-05-09T07:23:39.814Z,20.17
2024-05-09T07:26:44.243Z,19.91
2024-05-09T07:29:45.991Z,20.27
2024-05-09T07:32:53.223Z,20.39
2024-05-09T07:35:56.975Z,20.80
2024-05-09T07:39:01.281Z,21.24
2024-05-09T07:42:03.063Z,21.32
2024-05-09T07:45:29.543Z,20.81
2024-05-09T07:50:34.370Z,20.52
2024-05-09T07:53:22.102Z,20.84
2024-05-09T07:55:24.193Z,21.60
2024-05-09T07:58:27.796Z,22.54
2024-05-09T08:01:32.411Z,21.28
2024-05-09T08:04:36.827Z,21.45
2024-05-09T08:07:41.124Z,21.53
2024-05-09T08:10:43.382Z,22.54
2024-05-09T08:13:48.026Z,21.76
2024-05-09T08:16:49.770Z,21.03
2024-05-09T08:19:56.631Z,21.16
2024-05-09T08:22:58.440Z,21.58
2024-05-09T08:26:02.708Z,22.55
2024-05-09T08:29:04.547Z,22.99
2024-05-09T08:32:12.506Z,23.01
2024-05-09T08:35:16.945Z,22.83
2024-05-09T08:38:21.311Z,22.69
2024-05-09T08:41:23.023Z,22.87
2024-05-09T08:44:27.308Z,22.92
2024-05-09T08:47:31.612Z,22.81
2024-05-09T08:50:42.525Z,23.09
2024-05-09T08:53:44.397Z,22.97
2024-05-09T08:56:50.793Z,23.49
2024-05-09T08:59:53.789Z,24.44
2024-05-09T09:03:00.176Z,24.27
2024-05-09T09:06:09.327Z,24.29
2024-05-09T09:09:12.059Z,24.15
2024-05-09T09:12:17.148Z,24.45
2024-05-09T09:15:18.870Z,24.19
2024-05-09T09:18:23.264Z,23.79
2024-05-09T09:21:27.660Z,24.55
2024-05-09T09:24:32.002Z,24.04
2024-05-09T09:27:33.929Z,24.12
2024-05-09T09:30:41.717Z,25.21
2024-05-09T09:33:46.401Z,24.35
2024-05-09T09:36:51.234Z,23.40
2024-05-09T09:39:56.173Z,24.05
2024-05-09T09:42:58.195Z,24.51
2024-05-09T09:46:03.500Z,25.04
2024-05-09T09:49:06.839Z,24.49
2024-05-09T09:52:15.103Z,23.81
2024-05-09T09:55:17.536Z,24.38
2024-05-09T09:58:22.143Z,24.14
2024-05-09T10:01:24.091Z,24.27
2024-05-09T10:04:28.637Z,24.49
2024-05-09T10:07:34.564Z,24.90
2024-05-09T10:10:39.632Z,24.83
2024-05-09T10:13:44.452Z,24.98
2024-05-09T10:16:46.265Z,25.25
2024-05-09T10:19:50.890Z,25.71
2024-05-09T10:22:55.322Z,25.53
2024-05-09T10:26:05.129Z,25.51
2024-05-09T10:29:12.252Z,25.69
2024-05-09T10:32:16.715Z,25.06
2024-05-09T10:35:22.567Z,24.35
2024-05-09T10:38:29.618Z,23.36
2024-05-09T10:41:33.910Z,24.14
2024-05-09T10:44:40.453Z,24.88
2024-05-09T10:47:45.259Z,24.58
2024-05-09T10:50:47.407Z,24.85
2024-05-09T10:53:56.707Z,25.27
2024-05-09T10:56:58.424Z,25.46
2024-05-09T11:00:06.316Z,25.19
2024-05-09T11:03:11.456Z,25.17
2024-05-09T11:06:17.416Z,25.23
2024-05-09T11:09:22.006Z,25.28
2024-05-09T11:12:27.145Z,24.78
2024-05-09T11:15:38.033Z,24.90
2024-05-09T11:18:43.339Z,25.08
2024-05-09T11:21:50.885Z,25.55
2024-05-09T11:24:57.874Z,25.37
2024-05-09T11:27:59.689Z,25.48
2024-05-09T11:31:09.742Z,25.33
2024-05-09T11:34:12.600Z,24.83
2024-05-09T11:37:17.005Z,24.74
2024-05-09T11:40:25.676Z,25.13
2024-05-09T11:43:36.481Z,25.07
2024-05-09T11:46:38.182Z,25.05
2024-05-09T11:49:42.643Z,25.13
2024-05-09T11:52:47.512Z,24.71
2024-05-09T11:55:54.593Z,25.36
2024-05-09T11:58:56.542Z,26.37
2024-05-09T12:02:01.338Z,26.72
2024-05-09T12:05:03.610Z,25.69
2024-05-09T12:08:09.164Z,26.20
2024-05-09T12:11:16.879Z,27.01
2024-05-09T12:14:22.086Z,26.94
2024-05-09T12:17:23.920Z,26.80
2024-05-09T12:20:36.181Z,26.97
2024-05-09T12:23:43.259Z,27.19
2024-05-09T12:26:50.331Z,25.84
2024-05-09T12:29:54.642Z,25.80
2024-05-09T12:32:56.492Z,25.69
2024-05-09T12:36:01.043Z,25.77
2024-05-09T12:39:03.046Z,25.60
2024-05-09T12:42:12.657Z,26.13
2024-05-09T12:45:23.621Z,25.81
2024-05-09T12:48:25.525Z,25.19
2024-05-09T12:51:31.075Z,24.32
2024-05-09T12:54:36.006Z,24.26
2024-05-09T12:57:40.426Z,24.12
2024-05-09T13:00:44.984Z,25.07
2024-05-09T13:03:47.034Z,24.89
2024-05-09T13:06:51.915Z,25.63
2024-05-09T13:09:56.236Z,25.69
2024-05-09T13:13:01.300Z,25.80
2024-05-09T13:16:07.378Z,25.69
2024-05-09T13:19:09.308Z,26.11
2024-05-09T13:22:13.684Z,25.80
2024-05-09T13:25:15.548Z,25.57
2024-05-09T13:28:22.849Z,25.67
2024-05-09T13:31:24.733Z,25.77
2024-05-09T13:34:29.214Z,26.00
2024-05-09T13:37:33.006Z,25.69
2024-05-09T13:40:38.078Z,25.39
2024-05-09T13:43:42.427Z,25.50
2024-05-09T13:46:46.817Z,25.22
2024-05-09T13:49:48.837Z,25.67
2024-05-09T13:52:53.174Z,25.04
2024-05-09T13:55:54.933Z,24.78
2024-05-09T13:59:01.952Z,24.39
2024-05-09T14:02:07.631Z,24.59
2024-05-09T14:05:12.812Z,25.27
2024-05-09T14:08:15.693Z,24.69
2024-05-09T14:11:20.294Z,24.18
2024-05-09T14:14:27.200Z,23.92
2024-05-09T14:17:29.668Z,24.24
2024-05-09T14:20:34.016Z,24.87
2024-05-09T14:23:38.617Z,24.97
2024-05-09T14:26:40.401Z,24.58
2024-05-09T14:29:47.247Z,24.35
2024-05-09T14:32:49.219Z,24.56
2024-05-09T14:35:54.441Z,24.64
2024-05-09T14:38:56.666Z,24.64
2024-05-09T14:42:01.085Z,24.08
2024-05-09T14:45:06.230Z,24.24
2024-05-09T14:48:11.356Z,24.09
2024-05-09T14:51:13.191Z,24.02
2024-05-09T14:54:17.638Z,23.85
2024-05-09T14:57:19.534Z,23.69
2024-05-09T15:00:33.072Z,23.53
2024-05-09T15:03:40.090Z,23.17
2024-05-09T15:06:44.767Z,23.41
2024-05-09T15:09:47.202Z,23.08
2024-05-09T15:12:51.584Z,22.92
2024-05-09T15:15:56.109Z,23.46
2024-05-09T15:19:00.818Z,23.03
2024-05-09T15:22:02.691Z,22.80
2024-05-09T15:25:07.715Z,22.90
2024-05-09T15:28:12.376Z,23.02
2024-05-09T15:31:16.846Z,22.73
2024-05-09T15:34:21.204Z,22.81
2024-05-09T15:37:23.088Z,22.78
2024-05-09T15:40:36.191Z,22.53
2024-05-09T15:43:44.158Z,22.59
2024-05-09T15:46:48.743Z,22.22
2024-05-09T15:49:53.164Z,21.83
2024-05-09T15:52:55.348Z,21.75
2024-05-09T15:55:59.739Z,21.61
2024-05-09T15:59:01.522Z,21.53
2024-05-09T16:02:11.390Z,21.54
2024-05-09T16:05:15.961Z,21.52
2024-05-09T16:08:20.470Z,21.17
2024-05-09T16:11:24.802Z,21.19
2024-05-09T16:14:26.674Z,21.08
2024-05-09T16:17:33.696Z,21.31
2024-05-09T16:20:40.075Z,21.45
2024-05-09T16:23:47.422Z,21.30
2024-05-09T16:26:49.183Z,21.09
2024-05-09T16:29:53.659Z,20.76
2024-05-09T16:32:58.133Z,20.82
2024-05-09T16:36:02.628Z,20.70
2024-05-09T16:39:04.383Z,20.61
2024-05-09T16:42:08.673Z,20.45
2024-05-09T16:45:12.239Z,20.14
2024-05-09T16:48:19.551Z,20.02
2024-05-09T16:51:24.294Z,19.87
2024-05-09T16:54:28.609Z,19.80
2024-05-09T16:57:33.044Z,19.91
2024-05-09T17:00:40.814Z,20.08
2024-05-09T17:03:50.292Z,20.15
2024-05-09T17:06:54.801Z,20.00
2024-05-09T17:09:56.540Z,19.80
2024-05-09T17:13:01.005Z,19.65
2024-05-09T17:16:05.388Z,19.52
2024-05-09T17:19:12.731Z,19.35
2024-05-09T17:22:15.061Z,19.29
2024-05-09T17:25:20.200Z,19.29
2024-05-09T17:28:22.265Z,19.12
2024-05-09T17:31:26.735Z,19.03
2024-05-09T17:34:33.925Z,18.90
2024-05-09T17:37:36.023Z,18.76
2024-05-09T17:40:40.528Z,18.77
2024-05-09T17:43:42.444Z,18.67
2024-05-09T17:46:46.752Z,18.64
2024-05-09T17:49:51.104Z,18.70
2024-05-09T17:52:55.531Z,18.65
2024-05-09T17:55:59.246Z,18.57
2024-05-09T17:59:03.520Z,18.42
2024-05-09T18:02:05.425Z,18.22
2024-05-09T18:05:12.700Z,18.04
2024-05-09T18:08:17.102Z,17.92
2024-05-09T18:11:21.659Z,17.82
2024-05-09T18:14:23.385Z,17.59
2024-05-09T18:17:27.620Z,17.50
2024-05-09T18:20:40.499Z,17.35
2024-05-09T18:23:52.888Z,17.17
2024-05-09T18:26:57.433Z,17.01
2024-05-09T18:29:59.812Z,16.85
2024-05-09T18:33:05.353Z,16.71
2024-05-09T18:36:13.787Z,16.57
2024-05-09T18:39:16.665Z,16.29
2024-05-09T18:42:21.178Z,16.14
2024-05-09T18:45:22.933Z,16.01
2024-05-09T18:48:27.186Z,15.95
2024-05-09T18:51:32.107Z,15.70
2024-05-09T18:54:36.526Z,15.47
2024-05-09T18:57:40.978Z,15.24
2024-05-09T19:00:45.410Z,15.06
2024-05-09T19:03:52.310Z,14.94
2024-05-09T19:06:56.796Z,14.86
2024-05-09T19:10:01.203Z,14.78
2024-05-09T19:13:08.001Z,14.70
2024-05-09T19:16:15.536Z,14.58
2024-05-09T19:19:17.523Z,14.40
2024-05-09T19:22:24.590Z,14.27
2024-05-09T19:25:26.337Z,14.07
2024-05-09T19:28:30.564Z,13.95
2024-05-09T19:31:34.983Z,13.78
2024-05-09T19:34:39.297Z,13.76
2024-05-09T19:37:44.451Z,13.74
2024-05-09T19:40:48.918Z,13.56
2024-05-09T19:43:50.734Z,13.46
2024-05-09T19:46:54.986Z,13.45
2024-05-09T19:49:56.763Z,13.25
2024-05-09T19:53:03.560Z,13.18
2024-05-09T19:56:05.570Z,13.03
2024-05-09T19:59:09.866Z,12.90
2024-05-09T20:02:11.767Z,12.82
2024-05-09T20:05:16.461Z,12.73
2024-05-09T20:08:20.891Z,12.71
2024-05-09T20:11:26.280Z,12.68
2024-05-09T20:14:28.285Z,12.66
2024-05-09T20:17:32.630Z,12.53
2024-05-09T20:20:39.848Z,12.39
2024-05-09T20:23:49.580Z,12.32
2024-05-09T20:26:51.301Z,12.17
2024-05-09T20:29:55.519Z,12.12
2024-05-09T20:33:00.115Z,11.90
2024-05-09T20:36:04.608Z,11.90
2024-05-09T20:39:09.129Z,11.99
2024-05-09T20:42:13.428Z,11.96
2024-05-09T20:45:15.282Z,11.93
2024-05-09T20:48:19.487Z,11.93
2024-05-09T20:51:23.785Z,11.75
2024-05-09T20:54:28.075Z,11.71
2024-05-09T20:57:32.452Z,11.58
2024-05-09T21:00:39.630Z,11.56
2024-05-09T21:03:47.691Z,11.54
2024-05-09T21:06:49.582Z,11.55
2024-05-09T21:09:56.569Z,11.62
2024-05-09T21:12:58.416Z,11.43
2024-05-09T21:16:02.750Z,11.50
2024-05-09T21:19:04.595Z,11.41
2024-05-09T21:22:08.782Z,11.43
2024-05-09T21:25:13.388Z,11.33
2024-05-09T21:28:17.747Z,11.33
2024-05-09T21:31:19.691Z,11.41
2024-05-09T21:34:24.183Z,11.55
2024-05-09T21:37:26.103Z,11.61
2024-05-09T21:40:35.298Z,11.68
2024-05-09T21:43:41.147Z,11.51
2024-05-09T21:46:43.114Z,11.42
2024-05-09T21:49:47.521Z,11.37
2024-05-09T21:52:49.224Z,11.42
2024-05-09T21:55:56.067Z,11.49
2024-05-09T21:59:00.363Z,11.39
2024-05-09T22:02:02.536Z,11.25
2024-05-09T22:05:08.033Z,11.35
2024-05-09T22:08:12.715Z,11.26
2024-05-09T22:11:17.096Z,11.25
2024-05-09T22:14:21.952Z,11.14
2024-05-09T22:17:23.719Z,11.06
2024-05-09T22:20:34.501Z,11.04
2024-05-09T22:23:39.699Z,10.93
2024-05-09T22:26:46.550Z,10.94
2024-05-09T22:29:48.276Z,10.91
2024-05-09T22:32:52.610Z,10.91
2024-05-09T22:35:54.357Z,10.95
2024-05-09T22:38:58.653Z,11.03
2024-05-09T22:42:03.122Z,11.03
2024-05-09T22:45:08.093Z,10.96
2024-05-09T22:48:10.162Z,11.02
2024-05-09T22:51:15.285Z,11.04
2024-05-09T22:54:16.996Z,10.97
2024-05-09T22:57:23.877Z,10.93
2024-05-09T23:00:31.487Z,10.86
2024-05-09T23:03:37.231Z,10.93
2024-05-09T23:06:43.150Z,10.98
2024-05-09T23:09:44.995Z,10.90
2024-05-09T23:12:51.766Z,10.89
2024-05-09T23:15:53.542Z,10.73
2024-05-09T23:18:57.890Z,10.82
2024-05-09T23:21:59.738Z,10.81
2024-05-09T23:25:04.303Z,10.96
2024-05-09T23:28:11.507Z,10.93
2024-05-09T23:31:13.457Z,10.88
2024-05-09T23:34:17.879Z,11.02
2024-05-09T23:37:19.866Z,10.98
2024-05-09T23:40:34.654Z,11.08
2024-05-09T23:43:43.179Z,11.17
2024-05-09T23:46:47.523Z,11.14
2024-05-09T23:49:49.242Z,11.15
2024-05-09T23:52:53.519Z,11.19
2024-05-09T23:55:55.482Z,11.29
2024-05-09T23:59:02.325Z,11.40
